Time;durP1;ratioP1;P1;durP2;ratioP2;P2;SDS_P1;SDS_P2;PMS_P1;PMS_P2;Temp;Humidity;BMP_temperature;BMP_pressure;BME280_temperature;BME280_humidity;BME280_pressure;Samples;Min_cycle;Max_cycle;Signal;HPM_P1;HPM_P2
2023/06/16 00:01:16;;;;;;;;;;;;;;;22.90;71.75;99059.56;5093023;28;19965;-36
2023/06/16 00:03:43;;;;;;;;;;;;;;;22.83;71.96;99058.06;5092687;28;20006;-36
2023/06/16 00:06:14;;;;;;;;;;;;;;;22.36;73.59;99059.22;5092758;28;19912;-36
2023/06/16 00:08:44;;;;;;;;;;;;;;;22.05;75.28;99057.78;5092641;28;19952;-36
2023/06/16 00:11:09;;;;;;;;;;;;;;;21.76;76.64;99055.28;5092856;28;20395;-37
2023/06/16 00:13:35;;;;;;;;;;;;;;;21.69;76.23;99060.25;5092538;28;20080;-36
2023/06/16 00:16:00;;;;;;;;;;;;;;;21.73;76.53;99061.28;5092409;28;20241;-36
2023/06/16 00:18:27;;;;;;;;;;;;;;;22.30;74.21;99057.72;5092482;28;19912;-35
2023/06/16 00:20:54;;;;;;;;;;;;;;;22.45;72.48;99066.34;5092133;28;19913;-36
2023/06/16 00:23:23;;;;;;;;;;;;;;;22.67;72.39;99070.28;5092284;28;19947;-43
2023/06/16 00:25:48;;;;;;;;;;;;;;;22.45;73.57;99060.94;5092225;28;19970;-44
2023/06/16 00:28:14;;;;;;;;;;;;;;;21.96;75.06;99064.19;5092034;28;19916;-44
2023/06/16 00:30:39;;;;;;;;;;;;;;;21.81;76.24;99063.31;5092438;28;19981;-43
2023/06/16 00:33:05;;;;;;;;;;;;;;;22.00;75.05;99057.06;5091812;28;19925;-43
2023/06/16 00:35:30;;;;;;;;;;;;;;;21.65;76.82;99054.63;5092124;28;20288;-43
2023/06/16 00:37:56;;;;;;;;;;;;;;;21.77;76.68;99056.09;5091756;28;19912;-43
2023/06/16 00:40:21;;;;;;;;;;;;;;;21.41;78.91;99051.16;5091619;28;20081;-43
2023/06/16 00:42:46;;;;;;;;;;;;;;;21.38;78.10;99033.59;5091568;28;19912;-43
2023/06/16 00:45:12;;;;;;;;;;;;;;;21.53;78.45;99038.00;5091711;28;20421;-44
2023/06/16 00:47:37;;;;;;;;;;;;;;;21.19;80.02;99047.13;5091374;28;19912;-44
2023/06/16 00:50:03;;;;;;;;;;;;;;;21.27;79.20;99041.06;5091668;28;19962;-46
2023/06/16 00:52:33;;;;;;;;;;;;;;;21.22;79.54;99049.22;5092113;28;19912;-43
2023/06/16 00:54:59;;;;;;;;;;;;;;;21.45;79.43;99042.19;5091989;28;19912;-43
2023/06/16 00:57:24;;;;;;;;;;;;;;;21.34;79.02;99037.97;5092208;28;20325;-43
2023/06/16 00:59:49;;;;;;;;;;;;;;;21.35;78.63;99045.00;5092150;28;19912;-43
2023/06/16 01:02:15;;;;;;;;;;;;;;;21.58;78.05;99031.72;5091433;28;19916;-42
2023/06/16 01:04:40;;;;;;;;;;;;;;;21.48;78.43;99033.47;5091948;28;20257;-42
2023/06/16 01:07:09;;;;;;;;;;;;;;;21.82;76.62;99039.78;5091771;28;19943;-44
2023/06/16 01:09:37;;;;;;;;;;;;;;;22.11;75.15;99042.25;5091532;28;20403;-43
2023/06/16 01:12:18;;;;;;;;;;;;;;;22.38;73.84;99049.69;5091730;28;19912;-44
2023/06/16 01:14:57;;;;;;;;;;;;;;;22.26;73.67;99041.22;5091368;28;19928;-42
2023/06/16 01:17:23;;;;;;;;;;;;;;;22.02;75.11;99044.03;5091525;28;19916;-43
2023/06/16 01:19:57;;;;;;;;;;;;;;;21.70;76.52;99037.50;5091855;28;19912;-43
2023/06/16 01:22:22;;;;;;;;;;;;;;;21.39;78.10;99032.50;5091904;28;19912;-42
2023/06/16 01:24:48;;;;;;;;;;;;;;;21.59;77.60;99036.84;5091468;28;20284;-42
2023/06/16 01:27:17;;;;;;;;;;;;;;;21.22;78.74;99037.59;5091055;28;19919;-43
2023/06/16 01:29:43;;;;;;;;;;;;;;;21.26;79.54;99033.22;5092213;28;19919;-44
2023/06/16 01:32:10;;;;;;;;;;;;;;;21.53;77.81;99032.59;5091211;28;19927;-44
2023/06/16 01:34:35;;;;;;;;;;;;;;;21.56;77.57;99031.22;5091414;28;19927;-43
2023/06/16 01:37:02;;;;;;;;;;;;;;;21.36;78.12;99027.69;5091479;28;19916;-43
2023/06/16 01:39:27;;;;;;;;;;;;;;;20.80;80.56;99028.38;5091698;28;19912;-44
2023/06/16 01:41:53;;;;;;;;;;;;;;;20.98;79.75;99033.03;5089969;28;20045;-43
2023/06/16 01:44:19;;;;;;;;;;;;;;;21.19;79.64;99033.59;5091258;28;19923;-42
2023/06/16 01:46:45;;;;;;;;;;;;;;;21.36;78.81;99040.38;5091624;28;19963;-42
2023/06/16 01:49:11;;;;;;;;;;;;;;;20.77;80.70;99039.78;5091361;28;19919;-43
2023/06/16 01:51:36;;;;;;;;;;;;;;;21.16;79.12;99044.97;5091020;28;20002;-41
2023/06/16 01:54:01;;;;;;;;;;;;;;;21.37;77.80;99039.31;5090673;28;19920;-42
2023/06/16 01:56:28;;;;;;;;;;;;;;;21.05;78.67;99038.88;5091133;28;19912;-42
2023/06/16 01:58:53;;;;;;;;;;;;;;;21.05;79.78;99036.19;5090855;28;20021;-42
2023/06/16 02:01:25;;;;;;;;;;;;;;;21.03;80.38;99032.97;5091370;28;19912;-44
2023/06/16 02:03:52;;;;;;;;;;;;;;;21.19;79.32;99030.88;5090938;28;20380;-42
2023/06/16 02:06:38;;;;;;;;;;;;;;;20.79;80.22;99026.75;5091074;28;19956;-42
2023/06/16 02:09:04;;;;;;;;;;;;;;;20.61;82.05;99033.75;5090731;28;19912;-41
2023/06/16 02:11:29;;;;;;;;;;;;;;;20.51;82.24;99037.31;5091012;28;19912;-42
2023/06/16 02:13:55;;;;;;;;;;;;;;;20.91;81.31;99031.78;5090138;28;19916;-42
2023/06/16 02:16:20;;;;;;;;;;;;;;;20.88;80.87;99033.16;5091001;28;19919;-41
2023/06/16 02:18:49;;;;;;;;;;;;;;;20.73;81.10;99036.03;5091325;28;19939;-43
2023/06/16 02:21:14;;;;;;;;;;;;;;;20.28;83.06;99034.31;5090847;28;20408;-42
2023/06/16 02:23:40;;;;;;;;;;;;;;;20.37;83.41;99036.38;5091134;28;20007;-43
2023/06/16 02:26:05;;;;;;;;;;;;;;;20.58;81.49;99042.38;5091034;28;19912;-43
2023/06/16 02:28:30;;;;;;;;;;;;;;;20.29;83.17;99038.59;5090886;28;19913;-42
2023/06/16 02:30:55;;;;;;;;;;;;;;;20.05;85.18;99033.16;5090990;28;19999;-43
2023/06/16 02:33:21;;;;;;;;;;;;;;;20.59;82.76;99039.41;5090566;28;19924;-43
2023/06/16 02:35:46;;;;;;;;;;;;;;;20.63;82.34;99043.16;5091148;28;20021;-42
2023/06/16 02:38:11;;;;;;;;;;;;;;;20.84;81.15;99030.22;5090844;28;19920;-42
2023/06/16 02:40:37;;;;;;;;;;;;;;;20.78;81.55;99033.28;5091151;28;20345;-43
2023/06/16 02:43:02;;;;;;;;;;;;;;;21.03;80.19;99035.66;5090892;28;19916;-43
2023/06/16 02:45:28;;;;;;;;;;;;;;;21.24;78.74;99033.50;5090632;28;19912;-42
2023/06/16 02:47:53;;;;;;;;;;;;;;;21.26;77.99;99030.50;5090876;28;20399;-42
2023/06/16 02:50:19;;;;;;;;;;;;;;;21.42;78.09;99034.63;5090707;28;20011;-42
2023/06/16 02:52:44;;;;;;;;;;;;;;;21.61;77.12;99031.94;5090417;28;19962;-42
2023/06/16 02:55:10;;;;;;;;;;;;;;;21.72;75.80;99029.06;5090816;28;19985;-42
2023/06/16 02:57:35;;;;;;;;;;;;;;;21.88;75.43;99038.56;5090870;28;20322;-42
2023/06/16 03:00:01;;;;;;;;;;;;;;;21.60;75.60;99026.81;5090718;28;19912;-41
2023/06/16 03:02:26;;;;;;;;;;;;;;;21.81;75.43;99036.22;5090818;28;19923;-42
2023/06/16 03:04:51;;;;;;;;;;;;;;;21.70;75.51;99026.66;5090263;28;20011;-41
2023/06/16 03:07:17;;;;;;;;;;;;;;;21.80;75.34;99033.81;5090640;28;19912;-41
2023/06/16 03:09:43;;;;;;;;;;;;;;;21.79;75.66;99034.94;5090496;28;19912;-41
2023/06/16 03:12:08;;;;;;;;;;;;;;;21.87;75.42;99036.97;5090639;28;19912;-41
2023/06/16 03:14:33;;;;;;;;;;;;;;;21.95;75.20;99040.91;5082871;28;19923;-42
2023/06/16 03:17:00;;;;;;;;;;;;;;;22.04;74.97;99039.91;5082624;28;19959;-42
2023/06/16 03:19:25;;;;;;;;;;;;;;;22.10;75.03;99045.25;5090543;28;20310;-43
2023/06/16 03:21:50;;;;;;;;;;;;;;;22.10;74.92;99039.84;5090566;28;19919;-43
2023/06/16 03:24:19;;;;;;;;;;;;;;;22.20;74.05;99048.63;5090761;28;19919;-42
2023/06/16 03:26:45;;;;;;;;;;;;;;;22.19;74.34;99048.91;5094557;28;19998;-43
2023/06/16 03:29:12;;;;;;;;;;;;;;;21.73;76.65;99041.53;5094086;28;20303;-42
2023/06/16 03:31:37;;;;;;;;;;;;;;;21.66;76.38;99034.56;5093864;28;20421;-41
2023/06/16 03:34:03;;;;;;;;;;;;;;;21.55;77.56;99043.13;5093983;28;20344;-43
2023/06/16 03:36:28;;;;;;;;;;;;;;;21.59;77.85;99042.28;5093905;28;19918;-42
2023/06/16 03:38:53;;;;;;;;;;;;;;;21.52;77.88;99041.03;5093935;28;19912;-42
2023/06/16 03:41:19;;;;;;;;;;;;;;;21.66;77.40;99041.88;5094422;28;19947;-42
2023/06/16 03:43:44;;;;;;;;;;;;;;;21.71;77.22;99044.53;5094681;28;19912;-42
2023/06/16 03:46:09;;;;;;;;;;;;;;;21.60;77.38;99040.34;5094278;28;20379;-43
2023/06/16 03:48:35;;;;;;;;;;;;;;;21.82;76.48;99047.88;5093934;28;19916;-42
2023/06/16 03:51:00;;;;;;;;;;;;;;;21.88;76.92;99046.69;5094119;28;19912;-42
2023/06/16 03:53:27;;;;;;;;;;;;;;;21.92;76.70;99039.59;5093976;28;19965;-43
2023/06/16 03:55:52;;;;;;;;;;;;;;;21.72;76.96;99035.28;5093933;28;19916;-41
2023/06/16 03:58:18;;;;;;;;;;;;;;;21.39;78.28;99032.50;5093528;28;20012;-41
2023/06/16 04:00:43;;;;;;;;;;;;;;;21.06;80.33;99040.50;5093306;28;19923;-40
2023/06/16 04:03:09;;;;;;;;;;;;;;;21.09;81.90;99041.81;5093383;28;19912;-41
2023/06/16 04:05:34;;;;;;;;;;;;;;;21.43;79.62;99038.13;5093570;28;19974;-36
2023/06/16 04:08:00;;;;;;;;;;;;;;;20.81;82.59;99041.63;5093573;28;19912;-36
2023/06/16 04:10:25;;;;;;;;;;;;;;;21.35;81.13;99044.22;5093614;28;19916;-36
2023/06/16 04:12:51;;;;;;;;;;;;;;;21.79;79.03;99045.75;5093454;28;19926;-35
2023/06/16 04:15:16;;;;;;;;;;;;;;;21.63;78.29;99035.16;5093423;28;19952;-36
2023/06/16 04:17:41;;;;;;;;;;;;;;;21.43;80.63;99033.50;5093140;28;20388;-36
2023/06/16 04:20:10;;;;;;;;;;;;;;;21.58;80.20;99031.72;5093340;28;19912;-36
2023/06/16 04:22:35;;;;;;;;;;;;;;;22.08;77.67;99034.72;5093131;28;20355;-35
2023/06/16 04:25:01;;;;;;;;;;;;;;;21.69;78.28;99035.91;5092808;28;19920;-34
2023/06/16 04:27:28;;;;;;;;;;;;;;;21.81;78.03;99036.22;5093051;28;20011;-37
2023/06/16 04:29:54;;;;;;;;;;;;;;;22.05;77.11;99036.13;5092871;28;19920;-36
2023/06/16 04:32:20;;;;;;;;;;;;;;;21.33;78.83;99036.38;5092815;28;20013;-36
2023/06/16 04:34:49;;;;;;;;;;;;;;;21.11;81.00;99026.09;5092810;28;20003;-36
2023/06/16 04:37:15;;;;;;;;;;;;;;;21.05;81.12;99030.78;5091988;28;19916;-36
2023/06/16 04:39:40;;;;;;;;;;;;;;;21.20;81.18;99029.78;5092699;28;19978;-35
2023/06/16 04:42:08;;;;;;;;;;;;;;;21.30;79.89;99036.94;5092541;28;19924;-36
2023/06/16 04:44:33;;;;;;;;;;;;;;;21.60;79.90;99030.31;5091864;28;20384;-36
2023/06/16 04:46:59;;;;;;;;;;;;;;;21.59;78.79;99036.03;5090839;28;19951;-36
2023/06/16 04:49:24;;;;;;;;;;;;;;;21.52;80.54;99035.63;5090382;28;19912;-36
2023/06/16 04:51:49;;;;;;;;;;;;;;;22.12;78.32;99030.31;5090300;28;20281;-36
2023/06/16 04:54:15;;;;;;;;;;;;;;;21.77;78.83;99023.59;5090151;28;19951;-35
2023/06/16 04:56:40;;;;;;;;;;;;;;;22.16;77.88;99034.06;5090171;28;19927;-37
2023/06/16 04:59:05;;;;;;;;;;;;;;;22.50;76.74;99029.41;5089895;28;20011;-36
2023/06/16 05:01:31;;;;;;;;;;;;;;;23.02;74.19;99036.25;5090199;28;19912;-37
2023/06/16 05:03:56;;;;;;;;;;;;;;;22.51;75.55;99029.13;5090144;28;20349;-36
2023/06/16 05:06:21;;;;;;;;;;;;;;;22.57;74.65;99030.63;5084836;28;19939;-36
2023/06/16 05:08:46;;;;;;;;;;;;;;;22.59;75.21;99043.88;5070617;28;19912;-36
2023/06/16 05:11:12;;;;;;;;;;;;;;;22.88;73.07;99029.22;5070976;28;19923;-36
2023/06/16 05:13:37;;;;;;;;;;;;;;;23.16;72.69;99027.31;5071099;28;19962;-36
2023/06/16 05:16:02;;;;;;;;;;;;;;;23.64;70.64;99034.94;5070974;28;19919;-36
2023/06/16 05:18:28;;;;;;;;;;;;;;;23.16;71.55;99038.19;5071145;28;19920;-36
2023/06/16 05:20:53;;;;;;;;;;;;;;;23.22;70.08;99043.19;5070658;28;20319;-37
2023/06/16 05:23:18;;;;;;;;;;;;;;;23.01;72.26;99036.56;5071532;28;19913;-35
2023/06/16 05:25:45;;;;;;;;;;;;;;;23.52;70.52;99040.13;5077659;28;19991;-36
2023/06/16 05:28:10;;;;;;;;;;;;;;;23.95;68.23;99042.38;5089683;28;20398;-37
2023/06/16 05:30:35;;;;;;;;;;;;;;;23.54;68.41;99040.59;5091844;28;19980;-37
2023/06/16 05:33:01;;;;;;;;;;;;;;;23.48;69.25;99039.91;5091354;28;19978;-36
2023/06/16 05:35:26;;;;;;;;;;;;;;;23.09;69.86;99041.28;5091571;28;19920;-37
2023/06/16 05:38:04;;;;;;;;;;;;;;;23.36;69.87;99040.47;5089528;28;20122;-41
2023/06/16 05:40:29;;;;;;;;;;;;;;;23.19;70.42;99041.09;5089071;28;20295;-42
2023/06/16 05:42:54;;;;;;;;;;;;;;;22.83;72.04;99038.28;5091206;28;19922;-37
2023/06/16 05:45:20;;;;;;;;;;;;;;;23.74;69.35;99053.72;5091144;28;20359;-35
2023/06/16 05:47:46;;;;;;;;;;;;;;;23.64;68.73;99048.50;5090776;28;19912;-35
2023/06/16 05:50:11;;;;;;;;;;;;;;;23.47;68.76;99051.88;5091027;28;20347;-35
2023/06/16 05:52:37;;;;;;;;;;;;;;;23.77;68.79;99044.94;5090387;28;19916;-35
2023/06/16 05:55:02;;;;;;;;;;;;;;;24.11;66.26;99043.63;5090805;28;20240;-37
2023/06/16 05:57:27;;;;;;;;;;;;;;;24.38;65.55;99053.50;5091033;28;19999;-35
2023/06/16 05:59:53;;;;;;;;;;;;;;;24.52;65.13;99050.75;5089598;28;19916;-37
2023/06/16 06:02:19;;;;;;;;;;;;;;;24.55;63.68;99054.75;5090811;28;19912;-36
2023/06/16 06:04:45;;;;;;;;;;;;;;;24.38;64.46;99050.78;5090664;28;19933;-36
2023/06/16 06:07:10;;;;;;;;;;;;;;;24.90;63.10;99052.16;5090217;28;19916;-36
2023/06/16 06:09:36;;;;;;;;;;;;;;;24.85;62.25;99044.97;5086001;28;19912;-35
2023/06/16 06:12:01;;;;;;;;;;;;;;;25.79;59.64;99047.34;5079339;28;20257;-36
2023/06/16 06:14:27;;;;;;;;;;;;;;;25.84;59.48;99051.84;5094003;28;20388;-35
2023/06/16 06:16:52;;;;;;;;;;;;;;;25.28;59.79;99048.91;5111008;28;20267;-35
2023/06/16 06:19:17;;;;;;;;;;;;;;;25.35;60.77;99044.59;5111250;28;19915;-35
2023/06/16 06:21:43;;;;;;;;;;;;;;;25.77;60.10;99044.16;5109905;28;19912;-35
2023/06/16 06:24:09;;;;;;;;;;;;;;;26.09;57.98;99042.84;5092994;28;19916;-36
2023/06/16 06:26:34;;;;;;;;;;;;;;;26.44;57.39;99040.03;5090301;28;19916;-36
2023/06/16 06:28:59;;;;;;;;;;;;;;;26.81;56.46;99037.66;5090631;28;20298;-35
2023/06/16 06:31:25;;;;;;;;;;;;;;;26.69;55.14;99040.28;5090541;28;19996;-37
2023/06/16 06:33:50;;;;;;;;;;;;;;;26.88;54.52;99039.88;5091136;28;19923;-37
2023/06/16 06:36:22;;;;;;;;;;;;;;;26.65;54.65;99040.13;5090617;28;19939;-37
2023/06/16 06:38:48;;;;;;;;;;;;;;;26.53;55.25;99045.47;5089404;28;20327;-37
2023/06/16 06:41:13;;;;;;;;;;;;;;;26.45;56.02;99038.13;5089837;28;19913;-37
2023/06/16 06:43:38;;;;;;;;;;;;;;;25.96;56.96;99024.75;5088268;28;19966;-37
2023/06/16 06:46:04;;;;;;;;;;;;;;;26.31;56.30;99036.41;5089729;28;19928;-36
2023/06/16 06:48:29;;;;;;;;;;;;;;;25.43;58.16;99028.59;5079144;28;20019;-36
2023/06/16 06:50:54;;;;;;;;;;;;;;;25.67;58.23;99028.94;5079195;28;19913;-36
2023/06/16 06:53:20;;;;;;;;;;;;;;;25.66;59.08;99035.47;5081973;28;19948;-36
2023/06/16 06:55:45;;;;;;;;;;;;;;;25.67;57.85;99039.03;5090548;28;19913;-37
2023/06/16 06:58:10;;;;;;;;;;;;;;;25.27;58.29;99044.63;5090096;28;19919;-37
2023/06/16 07:00:36;;;;;;;;;;;;;;;25.99;56.75;99036.94;5091856;28;20411;-36
2023/06/16 07:03:01;;;;;;;;;;;;;;;26.00;56.71;99036.63;5094447;28;19912;-36
2023/06/16 07:05:26;;;;;;;;;;;;;;;26.19;57.16;99038.19;5092436;28;20426;-37
2023/06/16 07:07:51;;;;;;;;;;;;;;;26.18;56.67;99042.84;5091653;28;19923;-36
2023/06/16 07:10:17;;;;;;;;;;;;;;;25.86;56.82;99028.59;5091608;28;19920;-36
2023/06/16 07:12:42;;;;;;;;;;;;;;;26.20;55.50;99034.31;5091313;28;20442;-36
2023/06/16 07:15:07;;;;;;;;;;;;;;;26.45;56.14;99030.72;5091665;28;19916;-36
2023/06/16 07:17:34;;;;;;;;;;;;;;;26.03;56.45;99032.47;5091665;28;19912;-36
2023/06/16 07:19:59;;;;;;;;;;;;;;;26.06;56.21;98988.97;5092419;28;19912;-36
2023/06/16 07:22:25;;;;;;;;;;;;;;;26.68;54.84;99030.50;5092992;28;20310;-36
2023/06/16 07:24:50;;;;;;;;;;;;;;;27.10;54.49;99027.88;5093361;28;19934;-36
2023/06/16 07:27:15;;;;;;;;;;;;;;;26.86;53.56;99023.03;5093033;28;19912;-36
2023/06/16 07:29:41;;;;;;;;;;;;;;;27.62;51.03;99024.78;5093069;28;19912;-36
2023/06/16 07:32:06;;;;;;;;;;;;;;;26.70;53.40;99028.25;5093369;28;19924;-36
2023/06/16 07:34:32;;;;;;;;;;;;;;;26.38;55.03;99027.69;5093237;28;19920;-36
2023/06/16 07:36:57;;;;;;;;;;;;;;;27.18;52.13;99024.28;5093514;28;19941;-37
2023/06/16 07:39:23;;;;;;;;;;;;;;;26.80;51.26;99035.25;5093096;28;19968;-35
2023/06/16 07:41:49;;;;;;;;;;;;;;;27.03;51.34;99033.06;5093101;28;19920;-36
2023/06/16 07:44:14;;;;;;;;;;;;;;;27.47;50.06;99033.59;5093077;28;19912;-36
2023/06/16 07:46:42;;;;;;;;;;;;;;;27.95;49.41;99028.69;5092984;28;19918;-36
2023/06/16 07:49:07;;;;;;;;;;;;;;;28.08;48.32;99027.59;5092723;28;19912;-36
2023/06/16 07:51:32;;;;;;;;;;;;;;;27.38;50.34;99030.09;5092833;28;19918;-36
2023/06/16 07:53:58;;;;;;;;;;;;;;;26.64;51.81;99029.56;5092978;28;19977;-36
2023/06/16 07:56:23;;;;;;;;;;;;;;;26.92;51.95;99027.97;5092801;28;19912;-36
2023/06/16 07:58:48;;;;;;;;;;;;;;;26.65;52.95;99031.16;5092968;28;19926;-36
2023/06/16 08:01:13;;;;;;;;;;;;;;;26.66;52.54;99030.84;5093218;28;19990;-36
2023/06/16 08:03:39;;;;;;;;;;;;;;;26.28;54.07;99022.59;5092679;28;19935;-37
2023/06/16 08:06:05;;;;;;;;;;;;;;;26.56;54.04;99022.19;5092735;28;19913;-36
2023/06/16 08:08:32;;;;;;;;;;;;;;;26.95;52.60;99015.59;5092309;28;20372;-35
2023/06/16 08:10:57;;;;;;;;;;;;;;;27.94;49.99;99003.28;5091697;28;19912;-36
2023/06/16 08:13:23;;;;;;;;;;;;;;;27.80;50.38;99013.72;5092019;28;19939;-36
2023/06/16 08:15:49;;;;;;;;;;;;;;;28.46;49.52;99012.84;5092572;28;20053;-36
2023/06/16 08:18:14;;;;;;;;;;;;;;;28.01;48.59;99009.03;5092487;28;19912;-36
2023/06/16 08:20:39;;;;;;;;;;;;;;;27.23;51.10;99004.97;5092062;28;19912;-35
2023/06/16 08:23:05;;;;;;;;;;;;;;;27.43;50.08;99016.25;5092238;28;20010;-35
2023/06/16 08:25:30;;;;;;;;;;;;;;;27.96;49.91;99016.63;5092175;28;19931;-37
2023/06/16 08:27:56;;;;;;;;;;;;;;;27.91;49.90;99016.84;5091996;28;19935;-36
2023/06/16 08:30:21;;;;;;;;;;;;;;;27.98;49.86;99011.63;5092056;28;19923;-36
2023/06/16 08:32:47;;;;;;;;;;;;;;;28.22;49.21;99008.94;5091718;28;19924;-36
2023/06/16 08:35:13;;;;;;;;;;;;;;;27.00;48.73;99017.34;5091877;28;19931;-36
2023/06/16 08:37:38;;;;;;;;;;;;;;;26.58;49.20;99015.28;5092477;28;20356;-35
2023/06/16 08:40:10;;;;;;;;;;;;;;;27.06;47.37;99007.84;5092389;28;20025;-36
2023/06/16 08:42:36;;;;;;;;;;;;;;;27.60;45.50;98993.47;5092008;28;19917;-35
2023/06/16 08:45:03;;;;;;;;;;;;;;;28.02;45.19;99004.34;5092013;28;19918;-36
2023/06/16 08:47:28;;;;;;;;;;;;;;;27.99;43.82;98986.69;5092117;28;20019;-36
2023/06/16 08:49:56;;;;;;;;;;;;;;;28.47;42.62;98998.03;5091814;28;19957;-37
2023/06/16 08:52:23;;;;;;;;;;;;;;;28.63;42.54;98987.25;5091711;28;20353;-38
2023/06/16 08:54:57;;;;;;;;;;;;;;;28.55;41.98;98978.00;5092005;28;19916;-37
2023/06/16 08:57:22;;;;;;;;;;;;;;;29.37;40.66;98974.25;5091805;28;19922;-38
2023/06/16 08:59:50;;;;;;;;;;;;;;;29.49;39.93;98969.88;5092302;28;19912;-36
2023/06/16 09:02:15;;;;;;;;;;;;;;;29.08;40.77;98971.81;5091765;28;19919;-37
2023/06/16 09:04:41;;;;;;;;;;;;;;;28.43;41.18;98964.31;5091815;28;19912;-37
2023/06/16 09:07:07;;;;;;;;;;;;;;;28.01;41.71;98967.22;5091411;28;19912;-35
2023/06/16 09:09:32;;;;;;;;;;;;;;;27.73;42.28;98965.03;5091390;28;19949;-38
2023/06/16 09:12:04;;;;;;;;;;;;;;;28.28;41.39;98957.56;5091827;28;19969;-37
2023/06/16 09:14:31;;;;;;;;;;;;;;;28.69;41.25;98968.66;5091333;28;20379;-37
2023/06/16 09:16:57;;;;;;;;;;;;;;;27.87;42.93;98970.22;5091706;28;19912;-36
2023/06/16 09:19:22;;;;;;;;;;;;;;;28.45;42.22;98968.28;5091951;28;19998;-36
2023/06/16 09:21:53;;;;;;;;;;;;;;;28.20;43.29;98958.47;5091301;28;19938;-37
2023/06/16 09:24:22;;;;;;;;;;;;;;;27.87;43.70;98956.53;5090764;28;20375;-36
2023/06/16 09:26:52;;;;;;;;;;;;;;;27.70;45.05;98954.78;5091201;28;19912;-36
2023/06/16 09:29:22;;;;;;;;;;;;;;;27.60;45.06;98949.75;5091205;28;19942;-36
2023/06/16 09:31:47;;;;;;;;;;;;;;;27.95;44.95;98949.41;5091097;28;19932;-36
2023/06/16 09:34:12;;;;;;;;;;;;;;;27.55;46.13;98948.03;5090754;28;19920;-36
2023/06/16 09:36:38;;;;;;;;;;;;;;;28.04;45.22;98945.44;5090924;28;19913;-36
2023/06/16 09:39:07;;;;;;;;;;;;;;;28.41;44.70;98952.91;5090974;28;19912;-36
2023/06/16 09:41:35;;;;;;;;;;;;;;;28.72;45.35;98960.56;5090356;28;20003;-36
2023/06/16 09:44:02;;;;;;;;;;;;;;;28.39;45.01;98960.66;5090970;28;19919;-36
2023/06/16 09:46:28;;;;;;;;;;;;;;;28.00;44.70;98952.72;5090913;28;19920;-35
2023/06/16 09:48:54;;;;;;;;;;;;;;;28.50;44.75;98944.56;5091149;28;19970;-36
2023/06/16 09:51:21;;;;;;;;;;;;;;;28.34;44.68;98958.13;5090864;28;20423;-36
2023/06/16 09:53:47;;;;;;;;;;;;;;;28.40;44.28;98941.13;5091042;28;20039;-37
2023/06/16 09:56:16;;;;;;;;;;;;;;;27.88;45.38;98942.56;5091302;28;20004;-37
2023/06/16 09:58:41;;;;;;;;;;;;;;;27.54;45.24;98938.22;5090806;28;19980;-36
2023/06/16 10:01:08;;;;;;;;;;;;;;;26.76;45.79;98944.28;5090915;28;19912;-35
2023/06/16 10:03:37;;;;;;;;;;;;;;;27.20;45.50;98944.75;5091209;28;20298;-37
2023/06/16 10:06:06;;;;;;;;;;;;;;;26.68;44.83;98951.38;5091150;28;19916;-36
2023/06/16 10:08:32;;;;;;;;;;;;;;;26.70;45.61;98946.41;5090886;28;19920;-38
2023/06/16 10:10:57;;;;;;;;;;;;;;;26.79;45.40;98958.06;5090784;28;19912;-37
2023/06/16 10:13:25;;;;;;;;;;;;;;;26.37;45.75;98944.28;5091242;28;19916;-36
2023/06/16 10:15:51;;;;;;;;;;;;;;;26.22;45.94;98955.75;5090804;28;19916;-35
2023/06/16 10:18:17;;;;;;;;;;;;;;;26.29;44.56;98948.66;5090641;28;19965;-36
2023/06/16 10:20:45;;;;;;;;;;;;;;;26.81;43.76;98933.97;5090474;28;20369;-37
2023/06/16 10:23:10;;;;;;;;;;;;;;;26.91;43.52;98928.09;5090491;28;19953;-37
2023/06/16 10:25:37;;;;;;;;;;;;;;;27.05;44.45;98929.78;5090563;28;20065;-36
2023/06/16 10:28:07;;;;;;;;;;;;;;;26.97;44.04;98936.09;5090667;28;20399;-37
2023/06/16 10:30:33;;;;;;;;;;;;;;;27.29;41.62;98923.69;5091168;28;19929;-36
2023/06/16 10:32:59;;;;;;;;;;;;;;;26.98;41.57;98922.13;5090229;28;19924;-36
2023/06/16 10:35:25;;;;;;;;;;;;;;;26.96;42.59;98927.13;5092600;28;19923;-35
2023/06/16 10:37:54;;;;;;;;;;;;;;;26.60;42.34;98916.75;5094724;28;19912;-37
2023/06/16 10:40:23;;;;;;;;;;;;;;;26.56;42.03;98922.06;5094671;28;19987;-35
2023/06/16 10:42:55;;;;;;;;;;;;;;;26.49;42.61;98914.38;5094549;28;20276;-36
2023/06/16 10:45:28;;;;;;;;;;;;;;;26.73;42.87;98907.50;5094295;28;20007;-36
2023/06/16 10:48:05;;;;;;;;;;;;;;;26.50;43.64;98904.25;5094098;28;20003;-36
2023/06/16 10:50:39;;;;;;;;;;;;;;;26.96;42.63;98905.28;5094406;28;19916;-36
2023/06/16 10:53:10;;;;;;;;;;;;;;;26.57;43.85;98907.28;5094410;28;20355;-36
2023/06/16 10:55:38;;;;;;;;;;;;;;;26.68;43.41;98902.28;5094429;28;19924;-36
2023/06/16 10:58:13;;;;;;;;;;;;;;;26.31;44.64;98900.06;5094023;28;20356;-37
2023/06/16 11:00:41;;;;;;;;;;;;;;;26.41;43.93;98889.91;5094520;28;19984;-37
2023/06/16 11:03:06;;;;;;;;;;;;;;;27.24;43.56;98891.06;5094337;28;19951;-36
2023/06/16 11:05:37;;;;;;;;;;;;;;;27.58;43.23;98900.91;5094151;28;19951;-36
2023/06/16 11:08:05;;;;;;;;;;;;;;;26.86;43.33;98903.72;5094071;28;20387;-36
2023/06/16 11:10:46;;;;;;;;;;;;;;;26.46;44.95;98901.38;5094044;28;19919;-35
2023/06/16 11:13:14;;;;;;;;;;;;;;;26.39;45.49;98881.22;5094083;28;19955;-36
2023/06/16 11:15:41;;;;;;;;;;;;;;;27.18;44.83;98885.03;5094194;28;19920;-35
2023/06/16 11:18:06;;;;;;;;;;;;;;;26.61;46.24;98880.16;5093692;28;19942;-35
2023/06/16 11:20:33;;;;;;;;;;;;;;;27.11;45.15;98877.38;5093909;28;19916;-37
2023/06/16 11:22:58;;;;;;;;;;;;;;;27.42;44.31;98878.09;5093558;28;19912;-36
2023/06/16 11:25:24;;;;;;;;;;;;;;;26.95;46.11;98864.69;5093443;28;20311;-35
2023/06/16 11:27:49;;;;;;;;;;;;;;;27.08;45.81;98869.84;5093687;28;19912;-36
2023/06/16 11:30:14;;;;;;;;;;;;;;;27.43;46.12;98863.28;5094101;28;19916;-36
2023/06/16 11:32:40;;;;;;;;;;;;;;;27.23;46.46;98864.91;5092690;28;20080;-36
2023/06/16 11:35:05;;;;;;;;;;;;;;;27.37;46.35;98859.19;5093691;28;19916;-37
2023/06/16 11:37:40;;;;;;;;;;;;;;;27.86;45.90;98856.56;5093549;28;19912;-37
2023/06/16 11:40:07;;;;;;;;;;;;;;;28.15;45.70;98868.44;5093447;28;19919;-36
2023/06/16 11:42:33;;;;;;;;;;;;;;;28.22;45.14;98872.19;5093337;28;19923;-36
2023/06/16 11:44:58;;;;;;;;;;;;;;;28.35;43.76;98863.97;5093071;28;20319;-37
2023/06/16 11:47:24;;;;;;;;;;;;;;;28.08;45.47;98864.34;5092804;28;19916;-35
2023/06/16 11:49:49;;;;;;;;;;;;;;;27.84;46.66;98870.56;5092874;28;19916;-35
2023/06/16 11:52:15;;;;;;;;;;;;;;;28.20;46.17;98873.69;5092299;28;19923;-36
2023/06/16 11:54:40;;;;;;;;;;;;;;;28.81;44.77;98865.41;5093033;28;19923;-36
2023/06/16 11:57:06;;;;;;;;;;;;;;;27.64;46.85;98872.22;5092776;28;19912;-36
2023/06/16 11:59:32;;;;;;;;;;;;;;;27.11;49.13;98860.19;5093091;28;19932;-37
2023/06/16 12:01:58;;;;;;;;;;;;;;;26.66;48.69;98841.78;5093289;28;19912;-36
2023/06/16 12:04:27;;;;;;;;;;;;;;;26.74;49.20;98848.31;5092947;28;20483;-35
2023/06/16 12:06:56;;;;;;;;;;;;;;;26.59;47.76;98855.13;5092619;28;19919;-37
2023/06/16 12:09:21;;;;;;;;;;;;;;;26.77;47.60;98847.63;5092851;28;19987;-36
2023/06/16 12:11:48;;;;;;;;;;;;;;;27.36;46.32;98846.66;5093083;28;20381;-36
2023/06/16 12:14:21;;;;;;;;;;;;;;;27.82;46.48;98831.03;5092687;28;19927;-36
2023/06/16 12:16:48;;;;;;;;;;;;;;;27.56;46.88;98845.78;5092947;28;20355;-36
2023/06/16 12:19:20;;;;;;;;;;;;;;;27.08;49.14;98825.38;5092427;28;19924;-36
2023/06/16 12:21:49;;;;;;;;;;;;;;;26.88;50.58;98822.34;5092670;28;19976;-36
2023/06/16 12:24:14;;;;;;;;;;;;;;;26.95;50.72;98819.06;5092306;28;19916;-37
2023/06/16 12:26:40;;;;;;;;;;;;;;;26.98;51.11;98817.59;5092190;28;20054;-37
2023/06/16 12:29:10;;;;;;;;;;;;;;;26.99;50.92;98797.34;5092363;28;20011;-35
2023/06/16 12:31:35;;;;;;;;;;;;;;;27.35;51.10;98802.16;5092320;28;20315;-36
2023/06/16 12:34:00;;;;;;;;;;;;;;;26.50;51.76;98806.06;5090439;28;20328;-36
2023/06/16 12:36:26;;;;;;;;;;;;;;;27.19;50.95;98812.91;5090148;28;19923;-36
2023/06/16 12:38:56;;;;;;;;;;;;;;;27.38;50.77;98797.94;5092139;28;19923;-36
2023/06/16 12:41:21;;;;;;;;;;;;;;;27.94;48.94;98801.00;5091476;28;19916;-36
2023/06/16 12:43:50;;;;;;;;;;;;;;;27.78;48.50;98810.97;5091068;28;19908;-35